createdAt,value
2019-04-23T00:01:29.554Z,100803.22
2019-04-23T00:03:58.431Z,100806.55
2019-04-23T00:06:32.272Z,100811.28
2019-04-23T00:09:18.944Z,100809.34
2019-04-23T00:14:11.904Z,100804.11
2019-04-23T00:16:40.876Z,100816.92
2019-04-23T00:19:15.234Z,100807.69
2019-04-23T00:21:57.469Z,100792.95
2019-04-23T00:25:11.557Z,100794.60
2019-04-23T00:27:28.847Z,100800.72
2019-04-23T00:30:26.556Z,100789.63
2019-04-23T00:34:56.387Z,100784.95
2019-04-23T00:37:31.547Z,100783.84
2019-04-23T00:42:29.663Z,100776.00
2019-04-23T00:44:57.351Z,100780.19
2019-04-23T00:47:48.650Z,100776.60
2019-04-23T00:50:12.731Z,100773.86
2019-04-23T00:52:33.568Z,100770.27
2019-04-23T00:55:12.362Z,100776.47
2019-04-23T00:57:47.019Z,100776.54
2019-04-23T01:02:51.132Z,100780.44
2019-04-23T01:07:48.325Z,100780.66
2019-04-23T01:10:23.364Z,100774.52
2019-04-23T01:18:02.204Z,100772.75
2019-04-23T01:20:36.813Z,100768.61
2019-04-23T01:22:48.858Z,100769.22
2019-04-23T01:25:34.199Z,100765.92
2019-04-23T01:28:28.265Z,100766.23
2019-04-23T01:31:02.576Z,100759.53
2019-04-23T01:33:33.031Z,100752.02
2019-04-23T01:36:09.613Z,100754.55
2019-04-23T01:38:34.823Z,100752.02
2019-04-23T01:41:00.338Z,100745.25
2019-04-23T01:43:37.809Z,100740.80
2019-04-23T01:46:08.066Z,100740.80
2019-04-23T01:48:42.407Z,100738.02
2019-04-23T01:51:01.844Z,100734.11
2019-04-23T01:53:42.304Z,100735.84
2019-04-23T01:56:13.383Z,100735.63
2019-04-23T01:58:51.892Z,100728.69
2019-04-23T02:01:18.984Z,100729.50
2019-04-23T02:06:20.394Z,100722.58
2019-04-23T02:08:52.464Z,100719.53
2019-04-23T02:11:16.486Z,100724.63
2019-04-23T02:14:09.638Z,100717.98
2019-04-23T02:16:25.779Z,100712.42
2019-04-23T02:18:56.221Z,100708.55
2019-04-23T02:21:47.517Z,100705.23
2019-04-23T02:23:57.081Z,100706.11
2019-04-23T02:26:34.319Z,100706.72
2019-04-23T02:29:26.164Z,100705.05
2019-04-23T02:31:53.005Z,100705.05
2019-04-23T02:34:28.965Z,100699.47
2019-04-23T02:39:12.604Z,100698.95
2019-04-23T02:41:54.250Z,100695.04
2019-04-23T02:47:03.475Z,100691.19
2019-04-23T02:49:33.968Z,100687.33
2019-04-23T02:52:01.832Z,100688.45
2019-04-23T03:04:50.695Z,100682.67
2019-04-23T03:09:56.544Z,100678.00
2019-04-23T03:12:43.374Z,100674.70
2019-04-23T03:18:16.396Z,100677.55
2019-04-23T03:20:48.377Z,100667.26
2019-04-23T03:23:34.891Z,100669.51
2019-04-23T03:28:27.348Z,100670.09
2019-04-23T03:41:14.974Z,100657.95
2019-04-23T03:51:05.614Z,100666.72
2019-04-23T03:53:54.660Z,100668.13
2019-04-23T03:56:18.917Z,100668.71
2019-04-23T03:58:42.386Z,100671.53
2019-04-23T04:04:18.995Z,100660.72
2019-04-23T04:06:48.349Z,100668.48
2019-04-23T04:08:55.986Z,100661.22
2019-04-23T04:16:19.416Z,100656.98
2019-04-23T04:19:04.439Z,100663.95
2019-04-23T04:24:03.242Z,100645.94
2019-04-23T04:26:36.892Z,100659.26
2019-04-23T04:34:10.892Z,100646.70
2019-04-23T04:36:45.863Z,100644.98
2019-04-23T04:41:40.631Z,100652.16
2019-04-23T04:46:45.769Z,100642.25
2019-04-23T04:49:17.047Z,100651.09
2019-04-23T04:51:51.484Z,100634.30
2019-04-23T04:56:42.620Z,100630.31
2019-04-23T05:01:48.327Z,100618.73
2019-04-23T05:04:26.745Z,100614.69
2019-04-23T05:09:20.741Z,100620.73
2019-04-23T05:14:44.015Z,100611.19
2019-04-23T05:19:43.823Z,100610.12
2019-04-23T05:24:31.278Z,100611.25
2019-04-23T05:26:58.345Z,100608.53
2019-04-23T05:29:30.329Z,100592.52
2019-04-23T05:32:02.820Z,100594.83
2019-04-23T05:34:38.651Z,100596.80
2019-04-23T05:37:04.929Z,100608.02
2019-04-23T05:39:39.740Z,100605.84
2019-04-23T05:42:04.452Z,100610.66
2019-04-23T05:47:16.054Z,100605.48
2019-04-23T05:49:37.891Z,100602.58
2019-04-23T05:52:29.876Z,100595.39
2019-04-23T05:54:49.690Z,100596.86
2019-04-23T05:57:14.235Z,100582.43
2019-04-23T05:59:46.846Z,100591.49
2019-04-23T06:02:21.863Z,100595.08
2019-04-23T06:04:49.878Z,100589.53
2019-04-23T06:09:59.172Z,100585.97
2019-04-23T06:12:27.895Z,100580.38
2019-04-23T06:14:57.598Z,100585.25
2019-04-23T06:17:27.097Z,100601.30
2019-04-23T06:20:04.286Z,100586.05
2019-04-23T06:22:36.682Z,100594.70
2019-04-23T06:25:12.601Z,100584.61
2019-04-23T06:30:08.701Z,100584.09
2019-04-23T06:32:37.707Z,100585.78
2019-04-23T06:38:04.453Z,100580.38
2019-04-23T06:40:20.432Z,100581.34
2019-04-23T06:43:11.579Z,100578.31
2019-04-23T06:45:38.895Z,100564.08
2019-04-23T06:48:23.696Z,100565.06
2019-04-23T06:50:52.685Z,100566.02
2019-04-23T06:53:12.509Z,100564.28
2019-04-23T06:55:50.931Z,100567.57
2019-04-23T06:58:26.054Z,100567.81
2019-04-23T07:00:59.424Z,100557.94
2019-04-23T07:03:33.572Z,100553.88
2019-04-23T07:06:20.674Z,100547.39
2019-04-23T07:11:17.185Z,100552.89
2019-04-23T07:13:53.166Z,100565.26
2019-04-23T07:16:09.901Z,100553.03
2019-04-23T07:18:41.223Z,100555.47
2019-04-23T07:21:18.362Z,100533.83
2019-04-23T07:28:54.677Z,100533.93
2019-04-23T07:36:31.046Z,100519.28
2019-04-23T07:39:07.641Z,100535.91
2019-04-23T07:44:57.944Z,100516.56
2019-04-23T07:48:06.567Z,100516.97
2019-04-23T07:50:33.553Z,100504.95
2019-04-23T07:53:05.644Z,100488.20
2019-04-23T07:55:43.155Z,100504.41
2019-04-23T07:58:10.602Z,100476.11
2019-04-23T08:00:41.422Z,100490.81
2019-04-23T08:03:17.805Z,100482.10
2019-04-23T08:05:49.528Z,100485.48
2019-04-23T08:08:07.368Z,100480.22
2019-04-23T08:11:11.160Z,100475.38
2019-04-23T08:13:16.102Z,100477.84
2019-04-23T08:15:51.033Z,100466.98
2019-04-23T08:18:17.840Z,100469.55
2019-04-23T08:20:49.609Z,100460.79
2019-04-23T08:23:40.470Z,100453.22
2019-04-23T08:26:26.830Z,100469.00
2019-04-23T08:29:00.986Z,100442.78
2019-04-23T08:31:27.057Z,100434.59
2019-04-23T08:33:56.517Z,100431.09
2019-04-23T08:36:31.269Z,100416.10
2019-04-23T08:38:57.585Z,100416.47
2019-04-23T08:41:35.901Z,100414.03
2019-04-23T08:44:21.616Z,100428.28
2019-04-23T08:46:57.315Z,100423.29
2019-04-23T08:49:29.657Z,100412.30
2019-04-23T08:52:00.254Z,100404.17
2019-04-23T08:54:39.661Z,100406.63
2019-04-23T08:57:02.683Z,100397.55
2019-04-23T08:59:39.342Z,100383.64
2019-04-23T09:02:18.885Z,100390.86
2019-04-23T09:04:31.240Z,100388.71
2019-04-23T09:07:11.453Z,100377.02
2019-04-23T09:12:10.360Z,100381.48
2019-04-23T09:14:38.152Z,100373.81
2019-04-23T09:17:11.128Z,100369.27
2019-04-23T09:19:56.247Z,100383.06
2019-04-23T09:22:29.616Z,100375.13
2019-04-23T09:24:47.137Z,100398.61
2019-04-23T09:27:23.475Z,100375.05
2019-04-23T09:29:51.443Z,100373.30
2019-04-23T09:32:26.888Z,100352.41
2019-04-23T09:35:14.421Z,100348.78
2019-04-23T09:38:03.659Z,100354.24
2019-04-23T09:41:15.853Z,100338.37
2019-04-23T09:43:31.214Z,100330.68
2019-04-23T09:46:17.657Z,100335.34
2019-04-23T09:48:51.123Z,100338.81
2019-04-23T09:51:17.423Z,100341.28
2019-04-23T09:53:58.022Z,100339.18
2019-04-23T09:56:22.479Z,100329.63
2019-04-23T09:58:52.154Z,100323.46
2019-04-23T10:03:46.334Z,100307.55
2019-04-23T10:06:14.551Z,100310.23
2019-04-23T10:08:44.975Z,100310.61
2019-04-23T10:11:11.744Z,100297.66
2019-04-23T10:13:42.810Z,100293.38
2019-04-23T10:16:15.738Z,100282.95
2019-04-23T10:18:44.909Z,100292.91
2019-04-23T10:21:15.562Z,100267.77
2019-04-23T10:23:45.473Z,100263.40
2019-04-23T10:26:16.428Z,100279.52
2019-04-23T10:28:54.009Z,100278.13
2019-04-23T10:31:25.266Z,100267.36
2019-04-23T10:33:55.961Z,100259.73
2019-04-23T10:36:27.891Z,100255.30
2019-04-23T10:39:05.642Z,100257.72
2019-04-23T10:41:29.166Z,100250.89
2019-04-23T10:44:06.950Z,100250.43
2019-04-23T10:47:26.987Z,100230.75
2019-04-23T10:50:13.394Z,100236.11
2019-04-23T10:52:36.310Z,100230.98
2019-04-23T10:55:07.971Z,100228.78
2019-04-23T10:57:39.340Z,100221.33
2019-04-23T11:00:08.899Z,100234.84
2019-04-23T11:05:16.318Z,100213.06
2019-04-23T11:07:38.348Z,100218.56
2019-04-23T11:10:17.470Z,100213.36
2019-04-23T11:13:07.832Z,100201.59
2019-04-23T11:17:59.541Z,100218.78
2019-04-23T11:22:58.960Z,100197.72
2019-04-23T11:28:22.725Z,100192.48
2019-04-23T11:30:46.411Z,100193.48
2019-04-23T11:36:18.993Z,100194.42
2019-04-23T11:38:48.610Z,100177.47
2019-04-23T11:41:05.474Z,100194.50
2019-04-23T11:46:19.333Z,100180.20
2019-04-23T11:51:43.629Z,100183.39
2019-04-23T11:53:44.469Z,100220.39
2019-04-23T11:56:22.754Z,100188.59
2019-04-23T11:58:42.884Z,100180.20
2019-04-23T12:01:42.233Z,100166.09
2019-04-23T12:04:40.706Z,100206.16
2019-04-23T12:07:00.680Z,100178.02
2019-04-23T12:12:31.150Z,100165.78
2019-04-23T12:15:07.220Z,100182.67
2019-04-23T12:17:38.797Z,100167.12
2019-04-23T12:22:48.962Z,100189.09
2019-04-23T12:25:19.853Z,100209.67
2019-04-23T12:27:33.245Z,100192.98
2019-04-23T12:33:04.761Z,100158.83
2019-04-23T12:35:19.601Z,100151.01
2019-04-23T12:37:55.173Z,100154.01
2019-04-23T12:45:31.852Z,100175.92
2019-04-23T12:50:44.937Z,100157.66
2019-04-23T12:53:29.253Z,100159.33
2019-04-23T12:58:09.974Z,100155.50
2019-04-23T13:00:36.346Z,100142.52
2019-04-23T13:03:31.424Z,100159.65
2019-04-23T13:05:37.124Z,100129.88
2019-04-23T13:08:30.371Z,100139.64
2019-04-23T13:10:48.206Z,100139.81
2019-04-23T13:13:43.514Z,100136.25
2019-04-23T13:16:12.429Z,100136.25
2019-04-23T13:18:31.173Z,100129.23
2019-04-23T13:20:51.527Z,100112.65
2019-04-23T13:23:29.836Z,100139.84
2019-04-23T13:26:10.070Z,100103.71
2019-04-23T13:29:11.059Z,100117.55
2019-04-23T13:34:00.032Z,100096.69
2019-04-23T13:36:34.837Z,100119.04
2019-04-23T13:38:58.480Z,100119.04
2019-04-23T13:41:25.550Z,100095.80
2019-04-23T13:46:32.929Z,100096.69
2019-04-23T13:49:03.097Z,100097.03
2019-04-23T13:51:34.255Z,100047.56
2019-04-23T13:54:24.115Z,100084.89
2019-04-23T13:56:53.821Z,100085.47
2019-04-23T13:59:26.456Z,100085.47
2019-04-23T14:04:32.495Z,100073.34
2019-04-23T14:06:57.982Z,100077.89
2019-04-23T14:09:39.521Z,100042.54
2019-04-23T14:11:51.305Z,100070.72
2019-04-23T14:14:41.849Z,100070.72
2019-04-23T14:17:08.362Z,100074.89
2019-04-23T14:19:38.313Z,100068.77
2019-04-23T14:22:20.930Z,100074.16
2019-04-23T14:24:53.248Z,100075.72
2019-04-23T14:27:18.149Z,100066.85
2019-04-23T14:29:49.772Z,100060.92
2019-04-23T14:32:15.963Z,100051.09
2019-04-23T14:35:00.947Z,100058.52
2019-04-23T14:39:45.508Z,100054.81
2019-04-23T14:42:26.487Z,100052.42
2019-04-23T14:45:09.821Z,100052.36
2019-04-23T14:47:32.478Z,100065.97
2019-04-23T14:50:30.859Z,100050.42
2019-04-23T14:52:38.968Z,100044.41
2019-04-23T14:55:40.298Z,100052.44
2019-04-23T14:57:42.479Z,100052.44
2019-04-23T15:00:18.381Z,100039.86
2019-04-23T15:02:44.622Z,100043.09
2019-04-23T15:05:17.232Z,100045.29
2019-04-23T15:07:42.210Z,100048.83
2019-04-23T15:10:32.198Z,100044.36
2019-04-23T15:15:19.342Z,100043.34
2019-04-23T15:17:49.822Z,100041.25
2019-04-23T15:20:25.058Z,100072.88
2019-04-23T15:23:17.000Z,100072.49
2019-04-23T15:30:21.249Z,100031.39
2019-04-23T15:33:11.668Z,100049.52
2019-04-23T15:35:49.882Z,100044.05
2019-04-23T15:38:30.890Z,100028.63
2019-04-23T15:40:36.808Z,100031.12
2019-04-23T15:43:12.197Z,100025.34
2019-04-23T15:48:19.108Z,100041.91
2019-04-23T15:50:43.250Z,100020.49
2019-04-23T15:53:04.794Z,100021.82
2019-04-23T15:55:49.322Z,100028.13
2019-04-23T16:01:18.374Z,100018.97
2019-04-23T16:03:19.780Z,100024.86
2019-04-23T16:05:48.752Z,100019.48
2019-04-23T16:08:59.667Z,100030.70
2019-04-23T16:11:44.165Z,100021.28
2019-04-23T16:16:41.243Z,100049.80
2019-04-23T16:19:24.442Z,100077.94
2019-04-23T16:22:00.213Z,100029.83
2019-04-23T16:24:21.914Z,100015.95
2019-04-23T16:27:01.337Z,100022.09
2019-04-23T16:32:08.431Z,100040.39
2019-04-23T16:34:33.551Z,100040.28
2019-04-23T16:37:15.436Z,100021.95
2019-04-23T16:39:48.338Z,100038.41
2019-04-23T16:42:18.186Z,100026.94
2019-04-23T16:44:55.754Z,100023.91
2019-04-23T16:49:58.906Z,100033.96
2019-04-23T16:52:21.791Z,100037.73
2019-04-23T16:55:07.476Z,100030.91
2019-04-23T16:57:35.703Z,100038.11
2019-04-23T17:02:24.566Z,100026.95
2019-04-23T17:05:01.335Z,100037.22
2019-04-23T17:07:25.599Z,100024.81
2019-04-23T17:10:11.482Z,100022.80
2019-04-23T17:12:28.040Z,100019.86
2019-04-23T17:17:32.399Z,100021.52
2019-04-23T17:20:16.305Z,100045.59
2019-04-23T17:22:39.120Z,100021.44
2019-04-23T17:27:51.056Z,100021.82
2019-04-23T17:30:19.557Z,100017.95
2019-04-23T17:33:04.028Z,100021.14
2019-04-23T17:38:07.235Z,100020.19
2019-04-23T17:40:45.093Z,99998.38
2019-04-23T17:43:14.726Z,100030.27
2019-04-23T17:45:45.192Z,100017.14
2019-04-23T17:48:27.573Z,100001.20
2019-04-23T17:51:19.694Z,100013.13
2019-04-23T17:53:38.259Z,100029.30
2019-04-23T18:01:20.030Z,100018.28
2019-04-23T18:03:55.827Z,100027.09
2019-04-23T18:06:28.286Z,100009.14
2019-04-23T18:09:00.763Z,100017.34
2019-04-23T18:13:57.098Z,100014.42
2019-04-23T18:19:06.304Z,100006.55
2019-04-23T18:24:22.658Z,99992.02
2019-04-23T18:30:04.264Z,100027.73
2019-04-23T18:35:40.827Z,100007.95
2019-04-23T18:38:09.812Z,100004.53
2019-04-23T18:40:40.393Z,100014.03
2019-04-23T18:43:15.284Z,100019.66
2019-04-23T18:45:46.801Z,100027.62
2019-04-23T18:56:09.283Z,100001.38
2019-04-23T18:58:51.999Z,100007.24
2019-04-23T19:06:34.622Z,99990.70
2019-04-23T19:09:47.841Z,100014.13
2019-04-23T19:12:36.101Z,99998.56
2019-04-23T19:17:46.655Z,100007.08
2019-04-23T19:20:21.755Z,100006.37
2019-04-23T19:22:46.156Z,100006.73
2019-04-23T19:27:57.362Z,100011.76
2019-04-23T19:30:28.436Z,100019.85
2019-04-23T19:32:57.232Z,100025.48
2019-04-23T19:35:39.931Z,100025.82
2019-04-23T19:40:33.572Z,100038.38
2019-04-23T19:42:55.273Z,100041.19
2019-04-23T19:45:32.698Z,100047.50
2019-04-23T19:48:11.189Z,100054.36
2019-04-23T19:50:40.659Z,100043.53
2019-04-23T19:53:21.089Z,100051.08
2019-04-23T19:55:49.473Z,100045.56
2019-04-23T20:00:55.419Z,100042.81
2019-04-23T20:05:47.014Z,100045.72
2019-04-23T20:08:25.442Z,100046.00
2019-04-23T20:10:50.128Z,100035.22
2019-04-23T20:13:21.832Z,100046.88
2019-04-23T20:16:07.054Z,100048.73
2019-04-23T20:18:35.376Z,100053.33
2019-04-23T20:20:54.243Z,100052.20
2019-04-23T20:23:52.249Z,100053.05
2019-04-23T20:32:57.251Z,100031.97
2019-04-23T20:36:45.197Z,100043.03
2019-04-23T20:39:15.668Z,100049.19
2019-04-23T20:47:06.226Z,100045.95
2019-04-23T20:49:42.264Z,100050.34
2019-04-23T20:52:05.052Z,100043.52
2019-04-23T21:00:27.900Z,100055.05
2019-04-23T21:03:16.950Z,100043.88
2019-04-23T21:05:20.867Z,100043.23
2019-04-23T21:07:57.697Z,100049.07
2019-04-23T21:10:35.859Z,100051.52
2019-04-23T21:15:35.280Z,100064.41
2019-04-23T21:18:12.284Z,100065.47
2019-04-23T21:20:38.018Z,100044.14
2019-04-23T21:23:09.430Z,100075.63
2019-04-23T21:31:00.705Z,100050.84
2019-04-23T21:46:48.103Z,100069.85
2019-04-23T21:49:24.691Z,100055.95
2019-04-23T21:54:15.199Z,100056.27
2019-04-23T21:56:47.048Z,100053.97
2019-04-23T21:59:10.403Z,100054.56
2019-04-23T22:01:55.804Z,100059.91
2019-04-23T22:04:33.752Z,100058.66
2019-04-23T22:06:56.125Z,100058.09
2019-04-23T22:09:27.120Z,100052.57
2019-04-23T22:12:05.594Z,100058.67
2019-04-23T22:14:33.657Z,100059.58
2019-04-23T22:17:06.173Z,100049.11
2019-04-23T22:19:55.379Z,100053.41
2019-04-23T22:22:28.114Z,100053.71
2019-04-23T22:24:46.517Z,100045.66
2019-04-23T22:27:05.470Z,100054.71
2019-04-23T22:29:39.098Z,100047.72
2019-04-23T22:32:02.872Z,100056.23
2019-04-23T22:34:50.501Z,100053.34
2019-04-23T22:37:14.578Z,100044.56
2019-04-23T22:39:45.764Z,100050.47
2019-04-23T22:42:34.493Z,100055.80
2019-04-23T22:45:00.486Z,100067.70
2019-04-23T22:47:14.108Z,100049.68
2019-04-23T22:50:02.245Z,100053.97
2019-04-23T22:55:04.995Z,100044.98
2019-04-23T22:57:56.204Z,100060.86
2019-04-23T23:00:13.481Z,100052.48
2019-04-23T23:03:17.422Z,100051.42
2019-04-23T23:05:53.028Z,100053.51
2019-04-23T23:08:11.399Z,100039.53
2019-04-23T23:13:12.101Z,100039.49
2019-04-23T23:15:49.302Z,100042.62
2019-04-23T23:23:17.725Z,100045.39
2019-04-23T23:25:49.285Z,100036.66
2019-04-23T23:28:20.233Z,100047.98
2019-04-23T23:31:06.533Z,100042.45
2019-04-23T23:33:27.232Z,100037.52
2019-04-23T23:36:00.115Z,100044.56
2019-04-23T23:38:37.247Z,100025.40
2019-04-23T23:41:12.713Z,100035.59
2019-04-23T23:53:51.661Z,100033.41
2019-04-23T23:58:58.300Z,100027.41
